Time;durP1;ratioP1;P1;durP2;ratioP2;P2;SDS_P1;SDS_P2;PMS_P1;PMS_P2;Temp;Humidity;BMP_temperature;BMP_pressure;BME280_temperature;BME280_humidity;BME280_pressure;Samples;Min_cycle;Max_cycle;Signal;HPM_P1;HPM_P2
2022/05/31 00:01:53;;;;;;;2.93;2.07;;;9.40;99.90;;;;;;5044683;28;20689;-63
2022/05/31 00:04:22;;;;;;;2.77;1.90;;;9.40;99.90;;;;;;5044056;28;20233;-63
2022/05/31 00:06:50;;;;;;;2.33;1.97;;;9.30;99.90;;;;;;5044630;28;20222;-63
2022/05/31 00:09:19;;;;;;;2.07;1.90;;;9.30;99.90;;;;;;5044183;28;20233;-63
2022/05/31 00:11:48;;;;;;;2.10;1.90;;;9.30;99.90;;;;;;5044354;28;20232;-63
2022/05/31 00:14:17;;;;;;;2.30;2.10;;;9.30;99.90;;;;;;5043472;28;20283;-63
2022/05/31 00:16:47;;;;;;;2.10;1.90;;;9.30;99.90;;;;;;5045193;28;20559;-63
2022/05/31 00:19:17;;;;;;;2.50;1.87;;;9.20;99.90;;;;;;5044302;28;20715;-63
2022/05/31 00:21:46;;;;;;;2.13;1.87;;;9.20;99.90;;;;;;5044394;28;20235;-63
2022/05/31 00:24:17;;;;;;;1.87;1.77;;;9.20;99.90;;;;;;5043748;28;20809;-63
2022/05/31 00:26:47;;;;;;;2.20;2.03;;;9.20;99.90;;;;;;5044523;28;20228;-63
2022/05/31 00:29:16;;;;;;;1.80;1.70;;;9.10;99.90;;;;;;5043000;28;20232;-63
2022/05/31 00:31:47;;;;;;;1.90;1.80;;;9.10;99.90;;;;;;5044006;28;20231;-63
2022/05/31 00:34:16;;;;;;;3.20;1.83;;;9.10;99.90;;;;;;5043332;28;20229;-63
2022/05/31 00:36:47;;;;;;;2.20;2.00;;;9.10;99.90;;;;;;5044130;28;20228;-63
2022/05/31 00:39:15;;;;;;;1.83;1.63;;;9.10;99.90;;;;;;5044256;28;20574;-63
2022/05/31 00:41:56;;;;;;;1.97;1.87;;;9.10;99.90;;;;;;5042743;28;20921;-63
2022/05/31 00:44:27;;;;;;;2.07;1.87;;;9.10;99.90;;;;;;5042634;28;20318;-63
2022/05/31 00:46:58;;;;;;;2.07;1.60;;;9.00;99.90;;;;;;5041741;28;20884;-62
2022/05/31 00:49:33;;;;;;;2.57;1.90;;;9.00;99.90;;;;;;5043557;28;20224;-63
2022/05/31 00:52:06;;;;;;;2.20;2.00;;;9.00;99.90;;;;;;5044231;28;20243;-63
2022/05/31 00:54:39;;;;;;;2.83;2.00;;;9.00;99.90;;;;;;5042870;28;20256;-63
2022/05/31 00:57:08;;;;;;;2.30;2.10;;;8.90;99.90;;;;;;5043995;28;20584;-63
2022/05/31 00:59:41;;;;;;;3.30;1.87;;;8.90;99.90;;;;;;5043320;28;20236;-63
2022/05/31 01:02:11;;;;;;;3.67;1.90;;;8.90;99.90;;;;;;5043914;28;20700;-63
2022/05/31 01:04:42;;;;;;;3.23;2.20;;;8.90;99.90;;;;;;5042171;28;20722;-63
2022/05/31 01:07:10;;;;;;;2.20;2.10;;;8.90;99.90;;;;;;5043788;28;20239;-63
2022/05/31 01:09:39;;;;;;;3.40;1.93;;;8.90;99.90;;;;;;5043220;28;20231;-63
2022/05/31 01:12:38;;;;;;;2.13;2.00;;;8.80;99.90;;;;;;5005619;28;20733;-63
2022/05/31 01:15:26;;;;;;;2.43;2.07;;;8.80;99.90;;;;;;5041969;28;20259;-63
2022/05/31 01:18:13;;;;;;;2.27;2.10;;;8.80;99.90;;;;;;5042925;28;20255;-63
2022/05/31 01:21:01;;;;;;;3.23;2.30;;;8.70;99.90;;;;;;5042976;28;20278;-63
2022/05/31 01:23:50;;;;;;;2.30;2.00;;;8.70;99.90;;;;;;5041272;28;20228;-63
2022/05/31 01:26:28;;;;;;;2.10;2.00;;;8.70;99.90;;;;;;5040891;28;20241;-63
2022/05/31 01:29:05;;;;;;;2.77;2.40;;;8.70;99.90;;;;;;5042695;28;20314;-63
2022/05/31 01:31:38;;;;;;;2.40;2.20;;;8.70;99.90;;;;;;5041800;28;20779;-63
2022/05/31 01:34:11;;;;;;;3.37;2.63;;;8.70;99.90;;;;;;5040254;28;20232;-63
2022/05/31 01:36:46;;;;;;;2.70;2.17;;;8.60;99.90;;;;;;5042551;28;20228;-63
2022/05/31 01:39:22;;;;;;;3.83;2.60;;;8.60;99.90;;;;;;5042758;28;20268;-63
2022/05/31 01:41:55;;;;;;;2.40;2.10;;;8.60;99.90;;;;;;5042750;28;20591;-63
2022/05/31 01:44:27;;;;;;;2.03;1.93;;;8.50;99.90;;;;;;5039663;28;20643;-63
2022/05/31 01:46:58;;;;;;;2.57;2.20;;;8.50;99.90;;;;;;5042780;28;20244;-63
2022/05/31 01:49:30;;;;;;;2.33;2.20;;;8.50;99.90;;;;;;5042026;28;20237;-63
2022/05/31 01:52:00;;;;;;;2.23;2.03;;;8.50;99.90;;;;;;5042252;28;20675;-63
2022/05/31 01:54:29;;;;;;;3.20;2.40;;;8.50;99.90;;;;;;5041719;28;20239;-63
2022/05/31 01:57:01;;;;;;;3.07;2.30;;;8.50;99.90;;;;;;5041090;28;20240;-63
2022/05/31 01:59:35;;;;;;;2.50;2.30;;;8.50;99.90;;;;;;5040903;28;20239;-63
2022/05/31 02:02:05;;;;;;;2.93;2.23;;;8.50;99.90;;;;;;5040953;28;20243;-63
2022/05/31 02:04:34;;;;;;;2.87;2.33;;;8.40;99.90;;;;;;5041201;28;20251;-63
2022/05/31 02:07:12;;;;;;;3.13;2.30;;;8.40;99.90;;;;;;5041144;28;20241;-63
2022/05/31 02:09:47;;;;;;;2.77;2.30;;;8.40;99.90;;;;;;5064945;28;20735;-63
2022/05/31 02:12:29;;;;;;;2.40;2.20;;;8.40;99.90;;;;;;5041089;28;20726;-63
2022/05/31 02:15:16;;;;;;;2.83;2.20;;;8.40;99.90;;;;;;5041745;28;20275;-63
2022/05/31 02:18:04;;;;;;;2.57;2.37;;;8.30;99.90;;;;;;5041373;28;20236;-63
2022/05/31 02:20:55;;;;;;;2.33;2.13;;;8.30;99.90;;;;;;5041625;28;20228;-63
2022/05/31 02:23:24;;;;;;;3.13;2.43;;;8.30;99.90;;;;;;5061561;28;20795;-63
2022/05/31 02:25:52;;;;;;;2.40;2.20;;;8.30;99.90;;;;;;5040352;28;20232;-63
2022/05/31 02:28:21;;;;;;;2.50;2.20;;;8.30;99.90;;;;;;5040008;28;20239;-63
2022/05/31 02:30:54;;;;;;;2.70;2.37;;;8.20;99.90;;;;;;5041262;28;20230;-63
2022/05/31 02:33:23;;;;;;;2.20;2.00;;;8.20;99.90;;;;;;5041747;28;20338;-63
2022/05/31 02:35:51;;;;;;;2.90;2.60;;;8.20;99.90;;;;;;5040610;28;20216;-62
2022/05/31 02:38:20;;;;;;;2.50;2.20;;;8.20;99.90;;;;;;5039753;28;20227;-63
2022/05/31 02:40:51;;;;;;;2.40;2.20;;;8.10;99.90;;;;;;5040407;28;20239;-63
2022/05/31 02:43:19;;;;;;;2.90;2.40;;;8.10;99.90;;;;;;5040585;28;20605;-63
2022/05/31 02:45:47;;;;;;;2.80;2.30;;;8.10;99.90;;;;;;5041560;28;20236;-64
2022/05/31 02:48:15;;;;;;;2.80;2.37;;;8.10;99.90;;;;;;5040732;28;20240;-64
2022/05/31 02:50:43;;;;;;;2.70;2.30;;;8.10;99.90;;;;;;5041802;28;20599;-64
2022/05/31 02:53:11;;;;;;;3.27;2.27;;;8.10;99.90;;;;;;5040654;28;20235;-64
2022/05/31 02:55:39;;;;;;;2.50;2.27;;;8.10;99.90;;;;;;5040550;28;20224;-64
2022/05/31 02:58:31;;;;;;;3.83;2.40;;;8.00;99.90;;;;;;5003954;28;20359;-64
2022/05/31 03:01:19;;;;;;;3.13;2.67;;;8.00;99.90;;;;;;5041469;28;20227;-64
2022/05/31 03:04:12;;;;;;;2.43;2.23;;;8.00;99.90;;;;;;5044315;28;20236;-64
2022/05/31 03:07:01;;;;;;;2.20;2.00;;;8.00;99.90;;;;;;5041116;28;20270;-64
2022/05/31 03:09:32;;;;;;;2.50;2.30;;;7.90;99.90;;;;;;5065383;28;20228;-64
2022/05/31 03:12:04;;;;;;;3.03;2.73;;;7.90;99.90;;;;;;5040834;28;20327;-64
2022/05/31 03:14:39;;;;;;;2.87;2.63;;;7.90;99.90;;;;;;5039490;28;20264;-64
2022/05/31 03:17:11;;;;;;;2.70;2.50;;;7.90;99.90;;;;;;5041330;28;20236;-64
2022/05/31 03:19:47;;;;;;;2.80;2.60;;;7.90;99.90;;;;;;5040891;28;20659;-64
2022/05/31 03:22:24;;;;;;;2.80;2.50;;;7.90;99.90;;;;;;5041642;28;20330;-64
2022/05/31 03:24:56;;;;;;;2.43;2.10;;;7.90;99.90;;;;;;5041633;28;20281;-64
2022/05/31 03:27:27;;;;;;;4.10;2.30;;;7.90;99.90;;;;;;5043510;28;20848;-64
2022/05/31 03:30:00;;;;;;;2.57;2.30;;;7.90;99.90;;;;;;5042986;28;20308;-64
2022/05/31 03:32:30;;;;;;;3.30;2.70;;;7.90;99.90;;;;;;5041613;28;20365;-64
2022/05/31 03:34:58;;;;;;;3.30;3.00;;;7.90;99.90;;;;;;5041108;28;20220;-64
2022/05/31 03:37:27;;;;;;;3.37;3.07;;;8.00;99.90;;;;;;5062053;28;20328;-64
2022/05/31 03:39:55;;;;;;;3.60;2.50;;;7.90;99.90;;;;;;5042552;28;20224;-64
2022/05/31 03:42:23;;;;;;;2.73;2.43;;;7.90;99.90;;;;;;5041531;28;20289;-64
2022/05/31 03:44:52;;;;;;;3.73;2.60;;;7.90;99.90;;;;;;5044721;28;20247;-64
2022/05/31 03:47:37;;;;;;;2.97;2.67;;;7.90;99.90;;;;;;5045479;28;20230;-63
2022/05/31 03:50:28;;;;;;;3.43;2.63;;;8.00;99.90;;;;;;5044940;28;20607;-64
2022/05/31 03:52:56;;;;;;;2.70;2.47;;;8.10;99.90;;;;;;5068754;28;20231;-64
2022/05/31 03:55:24;;;;;;;5.40;2.33;;;8.10;99.90;;;;;;5044236;28;20255;-64
2022/05/31 03:57:53;;;;;;;3.03;2.77;;;8.20;99.90;;;;;;5045524;28;20606;-64
2022/05/31 04:00:47;;;;;;;3.07;2.67;;;8.30;99.90;;;;;;5044491;28;20341;-64
2022/05/31 04:03:27;;;;;;;2.80;2.60;;;8.30;99.90;;;;;;5044286;28;20244;-64
2022/05/31 04:05:55;;;;;;;2.97;2.67;;;8.40;99.90;;;;;;5043784;28;20294;-64
2022/05/31 04:08:25;;;;;;;2.77;2.57;;;8.50;99.90;;;;;;5044286;28;20308;-64
2022/05/31 04:10:55;;;;;;;2.53;2.33;;;8.50;99.90;;;;;;5042313;28;20259;-64
2022/05/31 04:13:25;;;;;;;2.30;2.10;;;8.50;99.90;;;;;;5042545;28;20238;-64
2022/05/31 04:16:13;;;;;;;2.40;2.20;;;8.60;99.90;;;;;;5042301;28;20270;-64
2022/05/31 04:18:58;;;;;;;3.37;2.40;;;8.60;99.90;;;;;;5066741;28;21094;-65
2022/05/31 04:21:26;;;;;;;4.83;2.57;;;8.80;99.90;;;;;;5042757;28;20238;-64
2022/05/31 04:24:01;;;;;;;2.93;2.57;;;8.90;99.90;;;;;;5043471;28;20818;-64
2022/05/31 04:26:41;;;;;;;2.77;2.57;;;9.00;99.90;;;;;;5045996;28;20230;-64
2022/05/31 04:29:28;;;;;;;2.90;2.60;;;9.30;99.90;;;;;;5046004;28;20251;-65
2022/05/31 04:32:28;;;;;;;4.67;2.73;;;9.50;99.90;;;;;;5045385;28;20232;-64
2022/05/31 04:35:03;;;;;;;3.17;2.87;;;9.60;99.90;;;;;;5045183;28;20688;-64
2022/05/31 04:37:32;;;;;;;3.40;2.67;;;9.70;99.90;;;;;;5044711;28;20220;-64
2022/05/31 04:40:13;;;;;;;3.33;3.03;;;9.80;99.90;;;;;;5042126;28;20315;-65
2022/05/31 04:42:44;;;;;;;3.40;2.83;;;10.00;99.90;;;;;;5043700;28;20231;-65
2022/05/31 04:45:27;;;;;;;3.43;3.13;;;10.20;99.90;;;;;;5063812;28;20363;-64
2022/05/31 04:47:56;;;;;;;3.70;3.10;;;10.50;99.90;;;;;;5042628;28;20250;-64
2022/05/31 04:50:27;;;;;;;3.40;2.90;;;10.60;99.90;;;;;;5041227;28;20303;-64
2022/05/31 04:52:55;;;;;;;4.07;3.67;;;10.90;99.90;;;;;;5044658;28;21122;-65
2022/05/31 04:55:23;;;;;;;4.00;3.23;;;11.20;99.90;;;;;;5042139;28;20222;-65
2022/05/31 04:57:52;;;;;;;4.73;3.50;;;11.30;99.90;;;;;;5067779;28;20786;-65
2022/05/31 05:00:21;;;;;;;3.17;2.87;;;11.50;99.90;;;;;;5066111;28;20364;-65
2022/05/31 05:02:59;;;;;;;3.33;3.03;;;11.50;99.90;;;;;;5043430;28;20249;-65
2022/05/31 05:05:32;;;;;;;3.30;3.00;;;11.80;99.90;;;;;;5042250;28;20227;-64
2022/05/31 05:08:19;;;;;;;4.00;3.53;;;12.00;99.90;;;;;;5043628;28;20218;-65
2022/05/31 05:10:48;;;;;;;3.37;3.00;;;12.20;99.90;;;;;;5043387;28;20272;-65
2022/05/31 05:13:40;;;;;;;3.10;2.80;;;12.30;99.90;;;;;;5036414;28;20243;-65
2022/05/31 05:16:29;;;;;;;3.40;3.10;;;12.50;99.90;;;;;;5042608;28;20722;-65
2022/05/31 05:18:57;;;;;;;3.33;3.00;;;12.70;99.90;;;;;;5042357;28;20239;-65
2022/05/31 05:21:27;;;;;;;3.50;3.20;;;12.90;99.90;;;;;;5041570;28;20783;-65
2022/05/31 05:23:56;;;;;;;4.53;3.10;;;13.20;99.90;;;;;;5041831;28;20241;-65
2022/05/31 05:26:40;;;;;;;3.03;2.70;;;13.30;99.90;;;;;;5041157;28;20249;-65
2022/05/31 05:32:23;;;;;;;4.77;2.70;;;13.80;99.90;;;;;;5040357;28;20242;-65
2022/05/31 05:35:14;;;;;;;3.47;3.17;;;13.90;99.90;;;;;;5038324;28;20231;-65
2022/05/31 05:37:50;;;;;;;3.70;2.90;;;14.20;99.90;;;;;;5056721;28;20234;-65
2022/05/31 05:40:25;;;;;;;3.33;2.77;;;14.30;99.90;;;;;;5039637;28;20238;-65
2022/05/31 05:43:10;;;;;;;2.97;2.60;;;14.40;99.90;;;;;;5041957;28;20683;-65
2022/05/31 05:45:54;;;;;;;3.23;2.43;;;14.60;99.90;;;;;;5040011;28;20373;-65
2022/05/31 05:48:23;;;;;;;3.27;2.60;;;14.90;99.90;;;;;;5043181;28;20689;-64
2022/05/31 05:50:51;;;;;;;3.07;1.93;;;14.90;99.90;;;;;;5040133;28;20323;-64
2022/05/31 05:53:47;;;;;;;3.13;2.33;;;15.00;99.90;;;;;;5040829;28;20278;-64
2022/05/31 05:56:33;;;;;;;3.10;2.07;;;15.10;99.90;;;;;;5042677;28;20358;-64
2022/05/31 05:59:21;;;;;;;2.67;1.80;;;15.20;99.90;;;;;;5041601;28;20365;-65
2022/05/31 06:02:14;;;;;;;2.80;1.70;;;15.40;99.90;;;;;;5043424;28;20332;-64
2022/05/31 06:05:26;;;;;;;2.40;1.60;;;15.60;99.90;;;;;;5039220;28;20687;-64
2022/05/31 06:08:00;;;;;;;2.50;1.53;;;15.80;99.90;;;;;;5039765;28;20236;-65
2022/05/31 06:10:36;;;;;;;1.47;1.33;;;15.90;99.90;;;;;;5041432;28;20259;-65
2022/05/31 06:13:09;;;;;;;2.63;1.60;;;16.00;99.90;;;;;;5040838;28;20247;-65
2022/05/31 06:15:42;;;;;;;1.87;1.23;;;16.10;99.90;;;;;;5039863;28;20220;-64
2022/05/31 06:18:15;;;;;;;2.87;1.40;;;16.40;99.90;;;;;;5064312;28;20321;-65
2022/05/31 06:20:48;;;;;;;3.97;1.50;;;16.80;99.90;;;;;;5041163;28;20231;-65
2022/05/31 06:23:16;;;;;;;2.00;1.30;;;16.80;99.90;;;;;;5063495;28;20259;-65
2022/05/31 06:25:46;;;;;;;2.10;1.70;;;16.90;99.90;;;;;;5038991;28;20310;-65
2022/05/31 06:28:27;;;;;;;2.50;1.50;;;17.00;99.90;;;;;;5039185;28;20228;-65
2022/05/31 06:30:55;;;;;;;1.60;1.33;;;16.80;99.90;;;;;;5039988;28;20633;-65
2022/05/31 06:33:24;;;;;;;4.90;1.60;;;16.70;99.90;;;;;;5039426;28;20711;-65
2022/05/31 06:35:53;;;;;;;1.77;1.43;;;16.60;99.90;;;;;;5034707;28;20377;-64
2022/05/31 06:38:22;;;;;;;2.53;1.40;;;16.30;99.90;;;;;;5036994;28;20545;-64
2022/05/31 06:40:55;;;;;;;4.17;1.73;;;16.30;99.90;;;;;;5039174;28;20598;-65
2022/05/31 06:43:52;;;;;;;1.30;1.20;;;16.20;99.90;;;;;;5033597;28;20230;-65
2022/05/31 06:46:57;;;;;;;2.03;1.00;;;16.20;99.90;;;;;;4940305;28;20270;-65
2022/05/31 06:49:25;;;;;;;1.77;1.27;;;16.10;99.90;;;;;;5022096;28;20240;-64
2022/05/31 06:58:57;;;;;;;1.00;0.90;;;17.00;99.90;;;;;;5014112;28;20235;-65
2022/05/31 07:01:31;;;;;;;1.60;0.90;;;17.30;99.90;;;;;;5039068;28;20251;-64
2022/05/31 07:03:59;;;;;;;1.73;0.70;;;17.20;99.90;;;;;;5038335;28;20236;-64
2022/05/31 07:06:28;;;;;;;2.03;0.90;;;17.20;99.90;;;;;;5040009;28;20349;-65
2022/05/31 07:09:16;;;;;;;1.20;0.70;;;17.20;99.90;;;;;;5040520;28;20813;-64
2022/05/31 07:11:44;;;;;;;2.40;0.80;;;17.70;99.90;;;;;;5038732;28;20227;-64
2022/05/31 07:14:39;;;;;;;1.47;0.83;;;17.70;99.90;;;;;;5039897;28;20224;-64
2022/05/31 07:17:35;;;;;;;3.80;1.33;;;18.00;99.90;;;;;;5033004;28;20233;-64
2022/05/31 07:20:04;;;;;;;2.63;1.30;;;18.00;99.90;;;;;;5069932;28;20236;-65
2022/05/31 07:22:36;;;;;;;2.10;0.93;;;18.10;99.90;;;;;;5044531;28;20228;-65
2022/05/31 07:25:23;;;;;;;2.10;0.80;;;18.20;99.90;;;;;;5044048;28;20239;-65
2022/05/31 07:27:58;;;;;;;1.67;0.80;;;18.40;99.90;;;;;;5044120;28;20236;-65
2022/05/31 07:30:30;;;;;;;1.77;0.80;;;18.70;99.90;;;;;;5043078;28;20802;-65
2022/05/31 07:33:01;;;;;;;2.67;1.00;;;18.80;99.90;;;;;;5042423;28;20873;-65
2022/05/31 07:35:50;;;;;;;2.93;1.10;;;18.70;99.90;;;;;;5042108;28;20226;-65
2022/05/31 07:38:22;;;;;;;1.23;0.80;;;18.90;99.90;;;;;;5043341;28;20228;-65
2022/05/31 07:40:51;;;;;;;2.20;0.93;;;19.10;99.90;;;;;;5043229;28;20594;-65
2022/05/31 07:43:19;;;;;;;2.60;0.80;;;19.30;99.90;;;;;;5042811;28;20329;-65
2022/05/31 07:46:00;;;;;;;1.70;0.80;;;19.20;99.90;;;;;;5041727;28;20234;-65
2022/05/31 07:48:28;;;;;;;1.93;0.93;;;19.10;99.90;;;;;;5042652;28;20228;-65
2022/05/31 07:50:57;;;;;;;2.50;1.00;;;19.00;99.90;;;;;;5042605;28;20238;-65
2022/05/31 07:53:48;;;;;;;2.27;1.10;;;19.00;99.90;;;;;;5043409;28;20658;-65
2022/05/31 07:56:37;;;;;;;2.77;1.50;;;19.00;99.90;;;;;;5044873;28;20393;-65
2022/05/31 07:59:23;;;;;;;1.50;0.80;;;19.00;99.90;;;;;;5043945;28;20269;-65
2022/05/31 08:02:11;;;;;;;1.00;0.90;;;19.20;99.90;;;;;;5044292;28;20352;-65
2022/05/31 08:04:48;;;;;;;2.00;1.30;;;19.30;99.90;;;;;;5040687;28;20356;-65
2022/05/31 08:07:17;;;;;;;2.43;1.20;;;19.40;99.90;;;;;;5042992;28;20333;-64
2022/05/31 08:09:46;;;;;;;2.67;1.30;;;19.20;99.90;;;;;;5043836;28;20669;-65
2022/05/31 08:12:14;;;;;;;2.10;1.50;;;19.00;99.90;;;;;;5043350;28;20444;-65
2022/05/31 08:14:42;;;;;;;2.13;1.30;;;19.00;99.90;;;;;;5042485;28;20326;-64
2022/05/31 08:17:12;;;;;;;1.67;1.47;;;18.90;99.90;;;;;;5044132;28;20238;-65
2022/05/31 08:19:45;;;;;;;2.03;1.83;;;18.80;99.90;;;;;;5041890;28;20257;-65
2022/05/31 08:22:13;;;;;;;2.30;2.10;;;18.60;99.90;;;;;;5043390;28;20244;-64
2022/05/31 08:24:42;;;;;;;4.00;2.30;;;18.60;99.90;;;;;;5042282;28;20243;-64
2022/05/31 08:27:12;;;;;;;3.23;1.87;;;18.70;99.90;;;;;;5043233;28;20238;-65
2022/05/31 08:29:40;;;;;;;2.70;2.30;;;19.00;99.90;;;;;;5042410;28;20242;-64
2022/05/31 08:32:09;;;;;;;5.93;2.30;;;19.30;99.90;;;;;;5043305;28;20253;-64
2022/05/31 08:34:39;;;;;;;4.20;2.37;;;19.30;99.90;;;;;;5041819;28;21254;-64
2022/05/31 08:37:07;;;;;;;3.03;2.20;;;19.30;99.90;;;;;;5045448;28;20301;-64
2022/05/31 08:39:35;;;;;;;2.67;2.33;;;19.20;99.90;;;;;;5045727;28;20244;-64
2022/05/31 08:42:07;;;;;;;3.17;1.57;;;18.80;99.90;;;;;;5045504;28;20235;-64
2022/05/31 08:44:43;;;;;;;2.20;1.60;;;19.00;99.90;;;;;;5044299;28;20694;-64
2022/05/31 08:47:19;;;;;;;2.80;2.03;;;19.50;99.90;;;;;;5045920;28;20284;-64
2022/05/31 08:53:17;;;;;;;1.87;1.73;;;20.70;99.90;;;;;;5042485;28;20245;-64
2022/05/31 08:58:42;;;;;;;4.20;2.73;;;20.80;99.90;;;;;;5041688;28;20599;-64
2022/05/31 09:01:13;;;;;;;3.67;2.07;;;20.50;99.90;;;;;;5043368;28;20251;-65
2022/05/31 09:03:44;;;;;;;3.23;2.30;;;20.50;99.90;;;;;;5041798;28;20573;-64
2022/05/31 09:06:19;;;;;;;3.37;2.47;;;20.50;99.90;;;;;;5041555;28;20245;-64
2022/05/31 09:08:59;;;;;;;2.80;2.37;;;20.40;99.90;;;;;;5042605;28;20219;-64
2022/05/31 09:11:30;;;;;;;3.03;2.70;;;20.50;99.90;;;;;;5043024;28;20262;-64
2022/05/31 09:14:06;;;;;;;2.80;2.50;;;20.80;99.90;;;;;;5043790;28;20232;-64
2022/05/31 09:16:42;;;;;;;3.73;2.83;;;20.90;99.90;;;;;;5043087;28;21080;-64
2022/05/31 09:19:15;;;;;;;2.80;2.07;;;20.90;99.90;;;;;;5042413;28;20251;-64
2022/05/31 09:21:48;;;;;;;3.10;2.30;;;20.90;99.90;;;;;;5041999;28;20870;-64
2022/05/31 09:24:18;;;;;;;4.00;1.93;;;20.90;99.90;;;;;;5041415;28;20790;-64
2022/05/31 09:27:00;;;;;;;3.30;2.23;;;20.70;99.90;;;;;;5043023;28;20270;-64
2022/05/31 09:29:36;;;;;;;2.50;1.70;;;20.80;99.90;;;;;;5041588;28;20228;-64
2022/05/31 09:32:12;;;;;;;2.77;1.80;;;20.90;99.90;;;;;;5041896;28;20251;-64
2022/05/31 09:35:01;;;;;;;2.33;1.80;;;21.10;99.90;;;;;;5040928;28;20311;-64
2022/05/31 09:37:43;;;;;;;3.70;2.43;;;21.50;99.90;;;;;;5042306;28;21282;-64
2022/05/31 09:40:34;;;;;;;3.37;2.67;;;21.50;99.90;;;;;;5041628;28;20227;-64
2022/05/31 09:43:07;;;;;;;3.40;2.27;;;21.30;99.90;;;;;;5040914;28;20281;-64
2022/05/31 09:45:40;;;;;;;2.73;2.40;;;21.40;99.90;;;;;;5040815;28;20781;-64
2022/05/31 09:48:08;;;;;;;4.10;2.23;;;21.30;99.90;;;;;;5044016;28;20310;-64
2022/05/31 09:50:36;;;;;;;7.03;2.93;;;21.50;99.90;;;;;;5042554;28;20227;-64
2022/05/31 09:57:05;;;;;;;3.00;2.57;;;21.20;99.90;;;;;;5041320;28;20582;-64
2022/05/31 09:59:13;;;;;;;3.43;2.50;;;20.80;99.90;;;;;;5040921;28;20247;-64
2022/05/31 10:02:21;;;;;;;2.53;1.83;;;20.70;99.90;;;;;;5040516;28;20365;-64
2022/05/31 10:04:50;;;;;;;2.03;1.80;;;21.00;99.90;;;;;;5039065;28;20231;-64
2022/05/31 10:07:34;;;;;;;3.03;1.80;;;22.30;99.90;;;;;;5041497;28;20232;-64
2022/05/31 10:10:08;;;;;;;3.17;1.90;;;22.10;99.90;;;;;;5042451;28;21057;-64
2022/05/31 10:12:39;;;;;;;3.00;2.00;;;21.90;99.90;;;;;;5040138;28;20238;-64
2022/05/31 10:15:10;;;;;;;1.77;1.43;;;21.90;99.90;;;;;;5039818;28;20709;-64
2022/05/31 10:17:42;;;;;;;2.73;1.80;;;22.40;99.90;;;;;;5039885;28;20246;-64
2022/05/31 10:20:22;;;;;;;3.10;1.80;;;22.40;99.90;;;;;;5040577;28;20886;-64
2022/05/31 10:22:54;;;;;;;2.97;1.80;;;22.20;99.90;;;;;;5040821;28;20318;-64
2022/05/31 10:25:46;;;;;;;2.63;1.60;;;21.90;99.90;;;;;;5040890;28;20242;-63
2022/05/31 10:28:53;;;;;;;2.33;1.50;;;22.20;99.90;;;;;;5037235;28;20262;-64
2022/05/31 10:31:40;;;;;;;1.83;1.10;;;22.80;99.90;;;;;;5042303;28;20224;-64
2022/05/31 10:34:31;;;;;;;1.57;1.40;;;23.60;99.90;;;;;;5041146;28;20262;-62
2022/05/31 10:37:02;;;;;;;1.70;1.30;;;24.00;99.90;;;;;;5040903;28;20223;-64
2022/05/31 10:39:33;;;;;;;2.47;1.37;;;23.40;99.90;;;;;;5041346;28;20702;-64
2022/05/31 10:42:04;;;;;;;1.70;1.33;;;22.60;99.90;;;;;;5041050;28;20962;-64
2022/05/31 10:44:40;;;;;;;3.23;1.33;;;22.40;99.90;;;;;;5039821;28;20266;-64
2022/05/31 10:47:19;;;;;;;3.43;1.60;;;22.50;99.90;;;;;;5041933;28;20766;-64
2022/05/31 10:49:52;;;;;;;1.80;1.20;;;22.50;99.90;;;;;;5040803;28;20234;-64
2022/05/31 10:52:35;;;;;;;3.67;1.50;;;23.20;99.90;;;;;;5042581;28;20245;-64
2022/05/31 10:55:23;;;;;;;1.80;1.10;;;23.70;99.90;;;;;;5044660;28;20240;-64
2022/05/31 10:58:03;;;;;;;2.43;1.23;;;24.20;99.90;;;;;;5043830;28;20248;-64
2022/05/31 11:00:37;;;;;;;1.83;0.90;;;24.40;99.90;;;;;;5045816;28;20218;-64
2022/05/31 11:03:22;;;;;;;1.30;1.00;;;24.00;99.90;;;;;;5045287;28;20232;-64
2022/05/31 11:06:07;;;;;;;2.00;1.33;;;23.60;99.90;;;;;;5046025;28;20626;-64
2022/05/31 11:12:05;;;;;;;2.43;1.33;;;22.50;99.90;;;;;;5045716;28;20699;-64
2022/05/31 11:14:51;;;;;;;1.30;1.07;;;22.30;99.90;;;;;;5044294;28;20250;-64
2022/05/31 11:17:37;;;;;;;1.83;1.27;;;21.90;99.90;;;;;;5044893;28;20282;-64
2022/05/31 11:20:18;;;;;;;1.53;1.20;;;22.00;99.90;;;;;;5044253;28;20243;-64
2022/05/31 11:23:11;;;;;;;1.80;1.10;;;22.10;99.90;;;;;;5044159;28;20281;-64
2022/05/31 11:25:52;;;;;;;1.40;1.00;;;22.40;99.90;;;;;;5043272;28;20260;-64
2022/05/31 11:29:04;;;;;;;2.00;0.90;;;23.30;99.90;;;;;;5044688;28;20250;-64
2022/05/31 11:31:47;;;;;;;2.07;0.90;;;23.70;99.90;;;;;;5023100;28;20736;-64
2022/05/31 11:34:31;;;;;;;2.67;1.03;;;24.10;99.90;;;;;;5044497;28;20677;-64
2022/05/31 11:37:12;;;;;;;2.57;0.93;;;24.10;99.90;;;;;;5043714;28;20299;-61
2022/05/31 11:39:57;;;;;;;2.07;1.13;;;23.90;99.80;;;;;;5042721;28;20811;-61
2022/05/31 11:42:44;;;;;;;0.87;0.70;;;23.70;99.90;;;;;;5042518;28;20312;-62
2022/05/31 11:45:20;;;;;;;2.20;1.10;;;23.70;99.90;;;;;;5043457;28;20246;-61
2022/05/31 11:48:22;;;;;;;1.77;0.93;;;23.50;99.90;;;;;;5044944;28;20267;-62
2022/05/31 11:51:11;;;;;;;2.23;0.80;;;23.40;99.90;;;;;;5034494;28;20584;-61
2022/05/31 11:53:59;;;;;;;1.77;0.70;;;23.70;99.90;;;;;;5043304;28;20711;-62
2022/05/31 11:56:34;;;;;;;1.70;0.97;;;23.70;99.90;;;;;;5043829;28;20268;-61
2022/05/31 11:59:08;;;;;;;2.63;0.90;;;23.20;99.90;;;;;;5044456;28;20578;-61
2022/05/31 12:01:42;;;;;;;2.40;0.80;;;22.50;99.90;;;;;;5044495;28;20231;-62
2022/05/31 12:04:19;;;;;;;1.90;0.90;;;21.80;99.90;;;;;;5042579;28;20234;-62
2022/05/31 12:06:54;;;;;;;1.20;0.67;;;21.70;99.90;;;;;;5044583;28;20242;-62
2022/05/31 12:09:36;;;;;;;2.20;1.20;;;21.60;99.90;;;;;;5043184;28;20242;-62
2022/05/31 12:12:12;;;;;;;1.80;0.93;;;21.10;99.90;;;;;;5046142;28;20322;-62
2022/05/31 12:14:46;;;;;;;1.97;1.00;;;20.80;99.90;;;;;;5044215;28;20879;-62
2022/05/31 12:17:16;;;;;;;2.77;0.90;;;20.70;99.90;;;;;;5045907;28;20249;-62
2022/05/31 12:20:00;;;;;;;2.10;0.83;;;20.90;99.90;;;;;;5044794;28;20244;-62
2022/05/31 12:22:34;;;;;;;2.27;1.20;;;21.10;99.90;;;;;;5044920;28;20243;-62
2022/05/31 12:25:08;;;;;;;2.03;0.90;;;20.70;99.90;;;;;;5045002;28;20300;-61
2022/05/31 12:27:41;;;;;;;1.33;1.00;;;20.80;99.90;;;;;;5045812;28;20301;-62
2022/05/31 12:30:19;;;;;;;1.00;0.90;;;20.90;99.90;;;;;;5043251;28;20240;-62
2022/05/31 12:32:52;;;;;;;1.27;0.90;;;20.80;99.90;;;;;;5042629;28;20244;-62
2022/05/31 12:35:54;;;;;;;2.17;1.10;;;20.50;99.90;;;;;;5042644;28;20316;-62
2022/05/31 12:38:23;;;;;;;1.10;0.73;;;20.30;99.90;;;;;;5043753;28;20741;-62
2022/05/31 12:40:54;;;;;;;2.30;1.17;;;20.40;99.90;;;;;;5045563;28;20224;-62
2022/05/31 12:43:45;;;;;;;2.27;0.90;;;20.60;99.90;;;;;;5045645;28;20236;-63
2022/05/31 12:46:37;;;;;;;1.23;1.03;;;20.50;99.90;;;;;;5044493;28;20247;-64
2022/05/31 12:49:12;;;;;;;2.13;0.93;;;20.20;99.90;;;;;;5045274;28;20338;-64
2022/05/31 12:51:41;;;;;;;2.23;1.00;;;20.30;99.90;;;;;;5042225;28;20346;-64
2022/05/31 12:54:13;;;;;;;2.30;0.90;;;20.40;99.90;;;;;;5041527;28;20230;-64
2022/05/31 12:56:59;;;;;;;1.97;1.00;;;20.50;99.90;;;;;;5042634;28;20306;-64
2022/05/31 12:59:53;;;;;;;1.90;0.90;;;20.40;99.90;;;;;;5042390;28;20227;-64
2022/05/31 13:02:35;;;;;;;1.83;1.03;;;20.40;99.90;;;;;;5043073;28;20238;-64
2022/05/31 13:05:25;;;;;;;2.63;0.97;;;20.40;99.90;;;;;;5043780;28;20231;-64
2022/05/31 13:08:21;;;;;;;5.47;1.63;;;20.60;99.90;;;;;;5044671;28;20682;-64
2022/05/31 13:19:41;;;;;;;5.10;1.40;;;20.50;99.90;;;;;;5043177;28;20251;-64
2022/05/31 13:22:14;;;;;;;6.13;1.80;;;20.70;99.90;;;;;;5043473;28;20236;-64
2022/05/31 13:24:49;;;;;;;4.97;1.43;;;20.50;99.90;;;;;;5041673;28;20641;-64
2022/05/31 13:27:21;;;;;;;5.07;1.10;;;20.50;99.90;;;;;;5043698;28;20235;-64
2022/05/31 13:30:05;;;;;;;2.33;1.03;;;20.60;99.90;;;;;;5043796;28;20788;-64
2022/05/31 13:32:35;;;;;;;6.83;1.33;;;20.60;99.90;;;;;;5043923;28;21150;-64
2022/05/31 13:35:11;;;;;;;5.87;1.50;;;20.50;99.90;;;;;;5043944;28;20246;-64
2022/05/31 13:37:57;;;;;;;3.60;1.00;;;20.40;99.90;;;;;;5044883;28;20650;-64
2022/05/31 13:40:31;;;;;;;6.37;1.10;;;20.10;99.90;;;;;;5044901;28;20255;-65
2022/05/31 13:43:02;;;;;;;2.27;0.90;;;19.90;99.90;;;;;;5044167;28;20583;-64
2022/05/31 13:45:33;;;;;;;2.10;0.80;;;19.90;99.90;;;;;;5043259;28;20228;-65
2022/05/31 13:48:10;;;;;;;1.10;0.83;;;19.80;99.90;;;;;;5044358;28;20235;-64
2022/05/31 13:50:40;;;;;;;0.77;0.70;;;19.50;99.90;;;;;;5044560;28;20988;-64
2022/05/31 13:53:11;;;;;;;1.47;0.83;;;19.30;99.90;;;;;;5044017;28;20267;-65
2022/05/31 13:55:41;;;;;;;1.17;0.80;;;19.20;99.90;;;;;;5042801;28;20327;-65
2022/05/31 13:58:13;;;;;;;1.57;0.80;;;19.20;99.90;;;;;;5042279;28;20231;-65
2022/05/31 14:00:45;;;;;;;0.93;0.70;;;19.20;99.90;;;;;;5043119;28;20226;-65
2022/05/31 14:03:20;;;;;;;1.00;0.70;;;19.20;99.90;;;;;;5041798;28;20733;-65
2022/05/31 14:05:57;;;;;;;0.70;0.70;;;19.10;99.90;;;;;;5041234;28;20551;-65
2022/05/31 14:08:35;;;;;;;1.07;0.70;;;19.10;99.90;;;;;;5042816;28;20632;-65
2022/05/31 14:11:10;;;;;;;1.13;0.77;;;19.10;99.90;;;;;;5043308;28;20300;-65